Time;durP1;ratioP1;P1;durP2;ratioP2;P2;SDS_P1;SDS_P2;PMS_P1;PMS_P2;Temp;Humidity;BMP_temperature;BMP_pressure;BME280_temperature;BME280_humidity;BME280_pressure;Samples;Min_cycle;Max_cycle;Signal;HPM_P1;HPM_P2
2022/10/09 00:00:33;;;;;;;;;;;;;;;;;;4962404;28;20047;-78
2022/10/09 00:02:59;;;;;;;12.32;4.35;;;;;;;;;;4984313;28;19914;-77
2022/10/09 00:05:25;;;;;;;;;;;;;;;;;;4964525;28;20113;-77
2022/10/09 00:07:51;;;;;;;11.07;4.22;;;;;;;;;;4973984;28;20318;-77
2022/10/09 00:10:17;;;;;;;;;;;;;;;;;;4980465;28;20402;-77
2022/10/09 00:12:42;;;;;;;11.25;4.43;;;;;;;;;;4983433;28;19917;-78
2022/10/09 00:15:08;;;;;;;;;;;;;;;;;;4971734;28;20106;-77
2022/10/09 00:17:33;;;;;;;11.32;4.72;;;;;;;;;;4977026;28;19925;-77
2022/10/09 00:19:58;;;;;;;;;;;;;;;;;;4974582;28;20053;-77
2022/10/09 00:22:24;;;;;;;13.45;4.97;;;;;;;;;;4984597;28;19921;-78
2022/10/09 00:24:49;;;;;;;;;;;;;;;;;;4979064;28;20030;-78
2022/10/09 00:27:15;;;;;;;13.70;4.63;;;;;;;;;;4979296;28;19914;-77
2022/10/09 00:29:40;;;;;;;;;;;;;;;;;;4974955;28;20042;-77
2022/10/09 00:32:06;;;;;;;14.60;5.15;;;;;;;;;;4962609;28;19913;-78
2022/10/09 00:34:31;;;;;;;12.27;5.13;;;;;;;;;;4985128;28;20058;-78
2022/10/09 00:36:56;;;;;;;;;;;;;;;;;;4981813;28;20521;-76
2022/10/09 00:39:22;;;;;;;15.07;5.53;;;;;;;;;;4984524;28;19910;-76
2022/10/09 00:41:47;;;;;;;14.95;5.38;;;;;;;;;;4981903;28;20042;-77
2022/10/09 00:44:32;;;;;;;11.02;5.30;;;;;;;;;;4949275;28;20045;-77
2022/10/09 00:46:57;;;;;;;8.18;5.03;;;;;;;;;;4977190;28;20043;-77
2022/10/09 00:49:26;;;;;;;10.73;5.25;;;;;;;;;;4956131;28;20038;-78
2022/10/09 00:51:52;;;;;;;11.30;5.68;;;;;;;;;;4970177;28;20469;-78
2022/10/09 00:54:19;;;;;;;11.57;5.25;;;;;;;;;;4958970;28;20049;-78
2022/10/09 00:56:45;;;;;;;9.25;5.53;;;;;;;;;;4987357;28;20038;-78
2022/10/09 00:59:11;;;;;;;9.88;5.07;;;;;;;;;;4975203;28;20022;-79
2022/10/09 01:01:37;;;;;;;11.48;5.43;;;;;;;;;;4987633;28;20125;-78
2022/10/09 01:04:02;;;;;;;;;;;;;;;;;;4955792;28;20031;-78
2022/10/09 01:06:28;;;;;;;12.02;4.40;;;;;;;;;;4975062;28;19914;-77
2022/10/09 01:08:56;;;;;;;9.35;4.47;;;;;;;;;;4958883;28;20414;-77
2022/10/09 01:11:27;;;;;;;11.95;4.70;;;;;;;;;;4994697;28;20038;-77
2022/10/09 01:14:04;;;;;;;10.73;4.60;;;;;;;;;;4961582;28;20556;-78
2022/10/09 01:16:29;;;;;;;;;;;;;;;;;;4978068;28;20050;-77
2022/10/09 01:19:04;;;;;;;10.40;5.00;;;;;;;;;;4961577;28;19910;-77
2022/10/09 01:21:31;;;;;;;12.13;4.93;;;;;;;;;;4987962;28;20043;-77
2022/10/09 01:24:00;;;;;;;13.30;4.57;;;;;;;;;;4974725;28;20061;-78
2022/10/09 01:26:26;;;;;;;12.02;4.88;;;;;;;;;;4970546;28;20027;-77
2022/10/09 01:28:51;;;;;;;;;;;;;;;;;;4974577;28;20038;-77
2022/10/09 01:31:17;;;;;;;11.40;4.90;;;;;;;;;;4975791;28;19949;-77
2022/10/09 01:33:42;;;;;;;8.38;4.85;;;;;;;;;;4974773;28;20037;-78
2022/10/09 01:36:08;;;;;;;13.63;4.90;;;;;;;;;;4971483;28;20047;-77
2022/10/09 01:38:33;;;;;;;;;;;;;;;;;;4981138;28;20046;-78
2022/10/09 01:40:59;;;;;;;13.15;5.57;;;;;;;;;;4987424;28;19914;-78
2022/10/09 01:43:24;;;;;;;13.40;5.68;;;;;;;;;;4948703;28;20019;-78
2022/10/09 01:45:50;;;;;;;12.13;5.13;;;;;;;;;;4985268;28;20039;-77
2022/10/09 01:48:16;;;;;;;8.98;5.43;;;;;;;;;;4972299;28;20039;-78
2022/10/09 01:50:43;;;;;;;9.98;5.00;;;;;;;;;;4965412;28;20103;-78
2022/10/09 01:53:10;;;;;;;7.40;4.57;;;;;;;;;;4962121;28;20505;-77
2022/10/09 01:55:50;;;;;;;10.75;5.30;;;;;;;;;;4966711;28;20035;-77
2022/10/09 01:58:27;;;;;;;8.40;4.32;;;;;;;;;;4963336;28;20081;-77
2022/10/09 02:00:59;;;;;;;11.00;5.22;;;;;;;;;;4965590;28;20490;-78
2022/10/09 02:03:24;;;;;;;7.07;5.07;;;;;;;;;;4962540;28;20102;-77
2022/10/09 02:05:50;;;;;;;13.18;4.47;;;;;;;;;;4958027;28;20026;-77
2022/10/09 02:08:16;;;;;;;11.05;5.03;;;;;;;;;;4967703;28;20054;-77
2022/10/09 02:10:41;;;;;;;8.68;4.70;;;;;;;;;;4964952;28;20059;-77
2022/10/09 02:13:07;;;;;;;11.73;4.70;;;;;;;;;;4943913;28;20402;-77
2022/10/09 02:15:56;;;;;;;8.73;4.85;;;;;;;;;;4967731;28;20034;-78
2022/10/09 02:18:24;;;;;;;10.13;4.93;;;;;;;;;;4956082;28;20053;-77
2022/10/09 02:20:50;;;;;;;12.02;5.20;;;;;;;;;;4965106;28;20483;-77
2022/10/09 02:23:16;;;;;;;10.82;4.93;;;;;;;;;;4954515;28;20028;-77
2022/10/09 02:25:41;;;;;;;10.48;4.78;;;;;;;;;;4954051;28;20037;-77
2022/10/09 02:28:07;;;;;;;;;;;;;;;;;;4971387;28;20124;-77
2022/10/09 02:30:38;;;;;;;9.98;4.50;;;;;;;;;;4970107;28;20094;-77
2022/10/09 02:33:04;;;;;;;10.88;5.45;;;;;;;;;;4962073;28;20035;-77
2022/10/09 02:35:29;;;;;;;10.95;5.18;;;;;;;;;;4957431;28;20055;-77
2022/10/09 02:37:55;;;;;;;;;;;;;;;;;;4973368;28;20050;-77
2022/10/09 02:40:20;;;;;;;9.70;5.20;;;;;;;;;;4964567;28;20000;-77
2022/10/09 02:42:45;;;;;;;11.73;5.63;;;;;;;;;;4970328;28;20069;-77
2022/10/09 02:45:11;;;;;;;;;;;;;;;;;;4958680;28;20456;-78
2022/10/09 02:47:36;;;;;;;11.55;5.35;;;;;;;;;;4968915;28;19918;-78
2022/10/09 02:50:02;;;;;;;;;;;;;;;;;;4987110;28;20177;-77
2022/10/09 02:52:27;;;;;;;9.35;5.53;;;;;;;;;;4974291;28;19921;-77
2022/10/09 02:54:52;;;;;;;;;;;;;;;;;;4974754;28;20023;-77
2022/10/09 02:57:18;;;;;;;12.05;5.55;;;;;;;;;;4983396;28;19918;-77
2022/10/09 02:59:43;;;;;;;11.82;5.80;;;;;;;;;;4957262;28;20027;-77
2022/10/09 03:02:09;;;;;;;11.18;6.15;;;;;;;;;;4975502;28;20046;-77
2022/10/09 03:04:34;;;;;;;;;;;;;;;;;;4973355;28;20085;-77
2022/10/09 03:07:00;;;;;;;13.27;6.47;;;;;;;;;;4982623;28;19914;-78
2022/10/09 03:09:26;;;;;;;12.02;6.05;;;;;;;;;;4941348;28;20110;-78
2022/10/09 03:11:51;;;;;;;;;;;;;;;;;;4963543;28;20062;-77
2022/10/09 03:14:17;;;;;;;10.63;6.40;;;;;;;;;;4989488;28;19961;-77
2022/10/09 03:16:42;;;;;;;13.88;6.63;;;;;;;;;;4989586;28;20129;-77
2022/10/09 03:19:08;;;;;;;12.40;6.05;;;;;;;;;;4965363;28;20038;-78
2022/10/09 03:21:33;;;;;;;11.73;6.55;;;;;;;;;;4965988;28;20063;-76
2022/10/09 03:23:59;;;;;;;13.35;7.15;;;;;;;;;;4964429;28;20023;-77
2022/10/09 03:26:24;;;;;;;;;;;;;;;;;;4966324;28;20065;-76
2022/10/09 03:28:50;;;;;;;10.60;6.28;;;;;;;;;;4989516;28;19902;-76
2022/10/09 03:31:15;;;;;;;;;;;;;;;;;;4989818;28;20139;-77
2022/10/09 03:33:41;;;;;;;10.57;6.00;;;;;;;;;;4989441;28;19956;-77
2022/10/09 03:36:06;;;;;;;12.55;6.45;;;;;;;;;;4980661;28;20058;-77
2022/10/09 03:38:32;;;;;;;14.77;6.32;;;;;;;;;;4975218;28;20031;-78
2022/10/09 03:40:58;;;;;;;11.93;5.80;;;;;;;;;;4952635;28;20094;-76
2022/10/09 03:43:23;;;;;;;;;;;;;;;;;;4975779;28;20023;-77
2022/10/09 03:45:49;;;;;;;11.85;6.22;;;;;;;;;;4986570;28;19918;-77
2022/10/09 03:48:14;;;;;;;12.55;6.07;;;;;;;;;;4975021;28;20060;-77
2022/10/09 03:50:40;;;;;;;12.90;6.80;;;;;;;;;;4957366;28;20410;-79
2022/10/09 03:53:06;;;;;;;16.05;6.13;;;;;;;;;;4994633;28;20041;-78
2022/10/09 03:55:31;;;;;;;10.70;5.80;;;;;;;;;;4979450;28;20047;-77
2022/10/09 03:57:57;;;;;;;;;;;;;;;;;;4969375;28;20144;-77
2022/10/09 04:00:23;;;;;;;10.35;5.88;;;;;;;;;;4976947;28;20376;-77
2022/10/09 04:02:48;;;;;;;;;;;;;;;;;;4974459;28;20125;-77
2022/10/09 04:05:14;;;;;;;12.50;5.78;;;;;;;;;;4986021;28;20386;-77
2022/10/09 04:07:39;;;;;;;12.25;6.18;;;;;;;;;;4977104;28;20525;-78
2022/10/09 04:10:05;;;;;;;12.52;6.03;;;;;;;;;;4977158;28;20405;-78
2022/10/09 04:12:30;;;;;;;11.80;6.10;;;;;;;;;;4980795;28;20034;-78
2022/10/09 04:14:55;;;;;;;;;;;;;;;;;;4948638;28;20083;-77
2022/10/09 04:17:21;;;;;;;12.02;6.45;;;;;;;;;;4955999;28;19914;-77
2022/10/09 04:19:46;;;;;;;11.20;5.97;;;;;;;;;;4967468;28;20113;-78
2022/10/09 04:22:12;;;;;;;10.90;6.55;;;;;;;;;;4964615;28;20035;-78
2022/10/09 04:24:37;;;;;;;14.52;6.38;;;;;;;;;;4981508;28;20498;-77
2022/10/09 04:27:03;;;;;;;16.42;6.28;;;;;;;;;;4980120;28;20487;-77
2022/10/09 04:29:29;;;;;;;12.40;6.00;;;;;;;;;;4983198;28;20478;-81
2022/10/09 04:31:54;;;;;;;11.95;5.60;;;;;;;;;;4976278;28;20034;-78
2022/10/09 04:34:20;;;;;;;10.75;5.65;;;;;;;;;;4962005;28;20054;-78
2022/10/09 04:36:45;;;;;;;12.02;5.97;;;;;;;;;;4968994;28;20038;-78
2022/10/09 04:39:11;;;;;;;;;;;;;;;;;;4977696;28;20034;-78
2022/10/09 04:41:36;;;;;;;11.80;5.38;;;;;;;;;;4983860;28;19977;-78
2022/10/09 04:44:02;;;;;;;10.27;5.10;;;;;;;;;;4977108;28;20035;-77
2022/10/09 04:46:27;;;;;;;11.18;5.43;;;;;;;;;;4978383;28;20046;-78
2022/10/09 04:48:53;;;;;;;;;;;;;;;;;;4974655;28;20556;-77
2022/10/09 04:51:18;;;;;;;8.45;4.70;;;;;;;;;;4988478;28;19910;-78
2022/10/09 04:53:43;;;;;;;;;;;;;;;;;;4989871;28;20039;-77
2022/10/09 04:56:10;;;;;;;10.65;5.07;;;;;;;;;;4992554;28;20365;-78
2022/10/09 04:58:36;;;;;;;9.70;4.97;;;;;;;;;;4990266;28;20040;-77
2022/10/09 05:01:05;;;;;;;11.85;5.38;;;;;;;;;;4975413;28;20035;-78
2022/10/09 05:03:31;;;;;;;12.48;4.97;;;;;;;;;;4977213;28;20035;-78
2022/10/09 05:06:03;;;;;;;6.32;4.50;;;;;;;;;;4986450;28;20033;-79
2022/10/09 05:08:29;;;;;;;10.98;4.72;;;;;;;;;;4975748;28;20046;-76
2022/10/09 05:10:58;;;;;;;8.27;4.75;;;;;;;;;;4975103;28;20398;-79
2022/10/09 05:13:23;;;;;;;11.25;5.28;;;;;;;;;;4978811;28;20038;-78
2022/10/09 05:15:49;;;;;;;10.30;4.82;;;;;;;;;;4968933;28;20076;-79
2022/10/09 05:18:15;;;;;;;7.57;4.47;;;;;;;;;;4969400;28;20070;-79
2022/10/09 05:20:40;;;;;;;8.23;4.57;;;;;;;;;;4953208;28;20031;-77
2022/10/09 05:23:06;;;;;;;8.13;4.18;;;;;;;;;;4985221;28;20606;-79
2022/10/09 05:25:31;;;;;;;9.35;3.97;;;;;;;;;;4971720;28;20022;-78
2022/10/09 05:27:59;;;;;;;6.35;3.80;;;;;;;;;;4969444;28;20468;-78
2022/10/09 05:30:24;;;;;;;9.82;4.28;;;;;;;;;;4966021;28;20121;-79
2022/10/09 05:32:50;;;;;;;7.18;4.05;;;;;;;;;;4947116;28;20162;-79
2022/10/09 05:35:15;;;;;;;;;;;;;;;;;;4968165;28;20051;-77
2022/10/09 05:37:42;;;;;;;9.23;3.65;;;;;;;;;;4973280;28;20382;-78
2022/10/09 05:40:08;;;;;;;7.18;3.80;;;;;;;;;;4974707;28;20045;-78
2022/10/09 05:42:33;;;;;;;6.97;4.10;;;;;;;;;;4973475;28;20043;-78
2022/10/09 05:44:59;;;;;;;10.07;3.85;;;;;;;;;;4974804;28;20041;-78
2022/10/09 05:47:24;;;;;;;;;;;;;;;;;;4968286;28;20074;-78
2022/10/09 05:49:50;;;;;;;10.15;3.83;;;;;;;;;;4987496;28;19910;-79
2022/10/09 05:52:15;;;;;;;;;;;;;;;;;;4974221;28;20085;-78
2022/10/09 05:54:41;;;;;;;6.22;3.70;;;;;;;;;;4970745;28;19954;-80
2022/10/09 05:57:06;;;;;;;8.57;3.95;;;;;;;;;;4954371;28;20031;-78
2022/10/09 05:59:32;;;;;;;;;;;;;;;;;;4939279;29;20162;-78
2022/10/09 06:01:57;;;;;;;11.93;4.22;;;;;;;;;;4954953;28;19910;-78
2022/10/09 06:04:23;;;;;;;10.15;4.85;;;;;;;;;;4956444;28;20110;-78
2022/10/09 06:06:49;;;;;;;5.65;3.85;;;;;;;;;;4938522;29;20515;-79
2022/10/09 06:09:15;;;;;;;6.07;3.80;;;;;;;;;;4955603;28;20031;-78
2022/10/09 06:11:40;;;;;;;6.97;4.28;;;;;;;;;;4954938;28;20054;-78
2022/10/09 06:14:06;;;;;;;;;;;;;;;;;;4986940;28;20035;-79
2022/10/09 06:16:32;;;;;;;7.97;3.60;;;;;;;;;;4955645;28;19914;-78
2022/10/09 06:18:58;;;;;;;9.65;3.75;;;;;;;;;;4970553;28;20038;-77
2022/10/09 06:21:25;;;;;;;;;;;;;;;;;;4987893;28;20559;-77
2022/10/09 06:23:51;;;;;;;8.00;3.20;;;;;;;;;;4969227;28;19914;-79
2022/10/09 06:26:16;;;;;;;;;;;;;;;;;;4971327;28;20090;-77
2022/10/09 06:28:42;;;;;;;5.60;3.70;;;;;;;;;;4972440;28;19918;-77
2022/10/09 06:31:07;;;;;;;;;;;;;;;;;;4973272;28;20118;-80
2022/10/09 06:33:34;;;;;;;6.57;3.45;;;;;;;;;;4956041;28;19919;-77
2022/10/09 06:36:03;;;;;;;6.35;3.08;;;;;;;;;;4969694;28;20089;-76
2022/10/09 06:38:28;;;;;;;7.22;3.10;;;;;;;;;;4962668;28;20035;-77
2022/10/09 06:40:54;;;;;;;;;;;;;;;;;;4963357;28;20406;-77
2022/10/09 06:43:19;;;;;;;8.57;3.47;;;;;;;;;;4977012;28;20402;-77
2022/10/09 06:45:44;;;;;;;;;;;;;;;;;;4954277;28;20451;-76
2022/10/09 06:48:10;;;;;;;7.13;2.90;;;;;;;;;;4954956;28;20399;-76
2022/10/09 06:50:35;;;;;;;;;;;;;;;;;;4966406;28;20501;-78
2022/10/09 06:53:02;;;;;;;9.10;2.90;;;;;;;;;;4963032;28;20433;-77
2022/10/09 06:55:27;;;;;;;5.80;2.80;;;;;;;;;;4966717;28;20027;-78
2022/10/09 06:57:53;;;;;;;;;;;;;;;;;;4970873;28;20388;-77
2022/10/09 07:00:18;;;;;;;6.82;3.10;;;;;;;;;;4957335;28;19978;-76
2022/10/09 07:02:44;;;;;;;;;;;;;;;;;;4970737;28;20026;-77
2022/10/09 07:05:09;;;;;;;7.38;3.22;;;;;;;;;;4967664;28;20001;-76
2022/10/09 07:07:34;;;;;;;;;;;;;;;;;;4985978;28;20042;-76
2022/10/09 07:10:00;;;;;;;5.43;2.70;;;;;;;;;;4950199;29;20040;-77
2022/10/09 07:12:25;;;;;;;;;;;;;;;;;;4956211;28;20035;-76
2022/10/09 07:14:51;;;;;;;8.27;3.00;;;;;;;;;;4951540;28;20011;-76
2022/10/09 07:17:17;;;;;;;;;;;;;;;;;;4956495;28;20158;-80
2022/10/09 07:19:43;;;;;;;9.02;3.65;;;;;;;;;;4949916;28;20456;-77
2022/10/09 07:22:10;;;;;;;;;;;;;;;;;;4955233;28;20256;-77
2022/10/09 07:24:36;;;;;;;8.23;3.05;;;;;;;;;;4953331;28;19910;-77
2022/10/09 07:27:01;;;;;;;;;;;;;;;;;;4973736;28;20173;-78
2022/10/09 07:29:26;;;;;;;5.70;2.70;;;;;;;;;;4957411;28;19918;-78
2022/10/09 07:31:52;;;;;;;;;;;;;;;;;;4958112;28;20517;-77
2022/10/09 07:34:17;;;;;;;5.25;2.90;;;;;;;;;;4961145;28;19922;-78
2022/10/09 07:36:43;;;;;;;;;;;;;;;;;;4959176;28;20041;-76
2022/10/09 07:39:08;;;;;;;6.05;2.90;;;;;;;;;;4977012;28;19941;-76
2022/10/09 07:41:34;;;;;;;;;;;;;;;;;;4977714;28;20041;-76
2022/10/09 07:43:59;;;;;;;6.72;2.92;;;;;;;;;;4977308;28;19910;-76
2022/10/09 07:46:24;;;;;;;;;;;;;;;;;;4976584;28;20037;-79
2022/10/09 07:48:51;;;;;;;5.93;2.67;;;;;;;;;;4978299;28;20350;-78
2022/10/09 07:51:20;;;;;;;6.28;3.03;;;;;;;;;;4976687;28;20614;-78
2022/10/09 07:53:46;;;;;;;3.88;2.30;;;;;;;;;;4961724;28;20542;-76
2022/10/09 07:56:11;;;;;;;;;;;;;;;;;;4975850;28;20106;-76
2022/10/09 07:58:37;;;;;;;5.32;2.92;;;;;;;;;;4976373;28;19918;-77
2022/10/09 08:01:02;;;;;;;;;;;;;;;;;;4976957;28;20145;-75
2022/10/09 08:03:28;;;;;;;7.15;3.10;;;;;;;;;;4977518;28;19913;-77
2022/10/09 08:05:53;;;;;;;;;;;;;;;;;;4978533;28;20042;-78
2022/10/09 08:08:19;;;;;;;7.55;2.60;;;;;;;;;;4973491;28;19953;-81
2022/10/09 08:10:44;;;;;;;;;;;;;;;;;;4992522;28;20019;-79
2022/10/09 08:13:09;;;;;;;6.65;2.58;;;;;;;;;;4977591;28;19913;-78
2022/10/09 08:15:35;;;;;;;;;;;;;;;;;;4977241;28;20026;-78
2022/10/09 08:18:00;;;;;;;7.47;2.90;;;;;;;;;;4973532;28;19918;-79
2022/10/09 08:20:26;;;;;;;;;;;;;;;;;;4969688;28;20062;-78
2022/10/09 08:22:51;;;;;;;5.60;2.80;;;;;;;;;;4981153;28;20437;-80
2022/10/09 08:25:17;;;;;;;;;;;;;;;;;;4944984;28;20342;-79
2022/10/09 08:27:43;;;;;;;6.47;2.67;;;;;;;;;;4970769;28;19914;-78
2022/10/09 08:30:08;;;;;;;;;;;;;;;;;;4977284;28;20512;-79
2022/10/09 08:32:33;;;;;;;6.30;2.45;;;;;;;;;;4977748;28;19936;-80
2022/10/09 08:34:59;;;;;;;;;;;;;;;;;;4979185;28;20384;-79
2022/10/09 08:37:24;;;;;;;4.85;2.38;;;;;;;;;;4968565;28;19961;-79
2022/10/09 08:39:50;;;;;;;;;;;;;;;;;;4963522;28;20018;-78
2022/10/09 08:42:22;;;;;;;7.97;2.70;;;;;;;;;;4970233;28;19914;-79
2022/10/09 08:44:48;;;;;;;6.40;3.00;;;;;;;;;;4961751;28;20035;-78
2022/10/09 08:47:20;;;;;;;4.35;2.42;;;;;;;;;;4964420;28;20418;-79
2022/10/09 08:49:45;;;;;;;5.65;2.35;;;;;;;;;;4979116;28;20039;-79
2022/10/09 08:52:11;;;;;;;;;;;;;;;;;;4968901;28;20039;-79
2022/10/09 08:54:36;;;;;;;7.72;2.63;;;;;;;;;;4993630;28;20012;-81
2022/10/09 08:57:02;;;;;;;;;;;;;;;;;;4994396;28;20031;-79
2022/10/09 08:59:28;;;;;;;9.75;3.22;;;;;;;;;;4978270;28;19914;-83
2022/10/09 09:01:53;;;;;;;;;;;;;;;;;;4962669;28;20058;-81
2022/10/09 09:04:25;;;;;;;4.82;2.65;;;;;;;;;;4963137;28;19918;-78
2022/10/09 09:06:56;;;;;;;6.35;2.70;;;;;;;;;;4991965;28;20045;-79
2022/10/09 09:09:38;;;;;;;6.45;2.65;;;;;;;;;;4979049;28;20121;-82
2022/10/09 09:12:07;;;;;;;7.68;2.80;;;;;;;;;;4978505;28;20094;-80
2022/10/09 09:14:51;;;;;;;4.90;2.63;;;;;;;;;;4964249;28;20034;-79
2022/10/09 09:17:20;;;;;;;6.05;2.58;;;;;;;;;;4994948;28;20038;-77
2022/10/09 09:19:51;;;;;;;8.93;2.78;;;;;;;;;;4983734;28;20030;-80
2022/10/09 09:22:16;;;;;;;7.90;2.92;;;;;;;;;;4975605;28;20055;-79
2022/10/09 09:24:41;;;;;;;;;;;;;;;;;;4978218;28;20022;-80
2022/10/09 09:27:20;;;;;;;4.10;2.22;;;;;;;;;;4975996;28;19913;-81
2022/10/09 09:29:49;;;;;;;7.13;2.47;;;;;;;;;;4990224;28;20431;-80
2022/10/09 09:32:16;;;;;;;6.53;3.13;;;;;;;;;;4988460;28;20379;-80
2022/10/09 09:34:42;;;;;;;7.35;2.42;;;;;;;;;;4958518;28;20059;-79
2022/10/09 09:37:10;;;;;;;14.00;5.65;;;;;;;;;;4946470;29;20035;-80
2022/10/09 09:39:36;;;;;;;6.65;3.65;;;;;;;;;;4955537;29;20062;-78
2022/10/09 09:42:22;;;;;;;9.63;4.55;;;;;;;;;;4969353;28;20050;-78
2022/10/09 09:45:04;;;;;;;8.63;5.10;;;;;;;;;;4970964;28;20459;-80
2022/10/09 09:47:33;;;;;;;8.82;4.95;;;;;;;;;;4972420;28;20099;-80
2022/10/09 09:50:01;;;;;;;13.75;6.88;;;;;;;;;;4957825;28;20026;-81
2022/10/09 09:52:30;;;;;;;11.00;4.03;;;;;;;;;;4971661;28;20038;-79
2022/10/09 09:54:56;;;;;;;8.40;4.03;;;;;;;;;;4990858;28;20045;-78
2022/10/09 09:57:32;;;;;;;9.38;3.83;;;;;;;;;;4956192;28;20054;-79
2022/10/09 09:59:57;;;;;;;;;;;;;;;;;;4971785;28;20038;-79
2022/10/09 10:02:24;;;;;;;9.03;4.27;;;;;;;;;;4968001;28;19920;-79
2022/10/09 10:04:55;;;;;;;7.07;3.60;;;;;;;;;;4976541;28;20117;-79
2022/10/09 10:07:49;;;;;;;5.47;2.30;;;;;;;;;;4965937;28;20431;-79
2022/10/09 10:10:15;;;;;;;5.50;2.88;;;;;;;;;;4975664;28;20050;-79
2022/10/09 10:12:45;;;;;;;5.10;2.83;;;;;;;;;;4976204;28;20027;-79
2022/10/09 10:15:18;;;;;;;6.40;2.90;;;;;;;;;;4991499;28;20390;-80
2022/10/09 10:17:44;;;;;;;4.28;2.40;;;;;;;;;;4955539;28;20050;-81
2022/10/09 10:20:09;;;;;;;8.05;2.40;;;;;;;;;;4960921;28;20030;-80
2022/10/09 10:22:35;;;;;;;6.53;2.42;;;;;;;;;;4956610;28;20034;-80
2022/10/09 10:25:00;;;;;;;4.82;2.50;;;;;;;;;;4967841;28;20559;-80
2022/10/09 10:27:30;;;;;;;4.70;1.90;;;;;;;;;;4949264;28;20064;-83
2022/10/09 10:30:03;;;;;;;4.15;2.47;;;;;;;;;;4974802;28;20046;-80
2022/10/09 10:32:33;;;;;;;4.88;2.45;;;;;;;;;;4951085;28;20130;-79
2022/10/09 10:35:00;;;;;;;4.20;2.00;;;;;;;;;;4965126;28;20066;-80
2022/10/09 10:37:35;;;;;;;7.35;1.90;;;;;;;;;;4978559;28;20035;-79
2022/10/09 10:40:05;;;;;;;3.90;1.95;;;;;;;;;;4971913;28;20118;-79
2022/10/09 10:42:54;;;;;;;5.68;2.10;;;;;;;;;;4959348;28;20023;-80
2022/10/09 10:45:30;;;;;;;3.05;2.05;;;;;;;;;;4954227;28;20544;-85
2022/10/09 10:47:56;;;;;;;4.47;2.10;;;;;;;;;;4979480;28;20121;-79
2022/10/09 10:50:21;;;;;;;5.50;2.20;;;;;;;;;;4990537;28;20053;-80
2022/10/09 10:52:53;;;;;;;6.13;1.90;;;;;;;;;;4975092;28;20038;-82
2022/10/09 10:55:24;;;;;;;5.22;1.80;;;;;;;;;;4989824;28;20043;-80
2022/10/09 10:57:50;;;;;;;3.70;1.63;;;;;;;;;;4976207;28;20065;-80
2022/10/09 11:00:16;;;;;;;3.58;2.00;;;;;;;;;;4985654;28;20018;-82
2022/10/09 11:02:57;;;;;;;4.38;2.00;;;;;;;;;;4956075;28;20041;-79
2022/10/09 11:05:24;;;;;;;4.15;1.50;;;;;;;;;;4983832;28;20089;-80
2022/10/09 11:08:05;;;;;;;4.78;1.75;;;;;;;;;;4969635;28;20085;-79
2022/10/09 11:10:54;;;;;;;3.72;1.80;;;;;;;;;;4951423;28;20038;-79
2022/10/09 11:13:38;;;;;;;5.15;1.80;;;;;;;;;;4952017;28;20070;-80
2022/10/09 11:16:07;;;;;;;3.90;1.80;;;;;;;;;;4997751;28;20510;-80
2022/10/09 11:18:51;;;;;;;3.33;1.77;;;;;;;;;;4982392;28;20101;-81
2022/10/09 11:21:22;;;;;;;3.03;1.90;;;;;;;;;;4984179;28;20517;-81
2022/10/09 11:23:47;;;;;;;3.08;1.80;;;;;;;;;;4967206;28;20038;-80
2022/10/09 11:26:16;;;;;;;3.50;1.80;;;;;;;;;;4983723;28;20023;-80
2022/10/09 11:28:47;;;;;;;4.22;1.90;;;;;;;;;;4996819;28;20035;-82
2022/10/09 11:31:15;;;;;;;6.03;2.50;;;;;;;;;;4951855;28;20075;-83
2022/10/09 11:33:54;;;;;;;3.72;2.20;;;;;;;;;;4965611;28;20490;-81
2022/10/09 11:36:22;;;;;;;4.15;2.13;;;;;;;;;;4981650;28;20102;-80
2022/10/09 11:38:50;;;;;;;4.55;1.90;;;;;;;;;;4976078;28;20039;-80
2022/10/09 11:41:16;;;;;;;3.08;1.70;;;;;;;;;;4962322;28;20078;-79
2022/10/09 11:43:57;;;;;;;4.10;1.90;;;;;;;;;;4977095;28;20034;-81
2022/10/09 11:46:25;;;;;;;4.55;2.38;;;;;;;;;;4991648;28;20026;-82
2022/10/09 11:49:00;;;;;;;3.65;1.92;;;;;;;;;;4960002;28;20034;-79
2022/10/09 11:51:38;;;;;;;4.00;2.00;;;;;;;;;;4973669;28;20035;-79
2022/10/09 11:54:03;;;;;;;5.82;2.10;;;;;;;;;;4973278;28;20528;-79
2022/10/09 11:56:30;;;;;;;4.15;2.58;;;;;;;;;;4972595;28;20059;-79
2022/10/09 11:59:00;;;;;;;5.30;2.67;;;;;;;;;;4958396;28;20038;-80
2022/10/09 12:01:46;;;;;;;4.45;2.78;;;;;;;;;;4974109;28;20042;-80
2022/10/09 12:04:11;;;;;;;6.43;3.58;;;;;;;;;;4945951;28;20031;-80
2022/10/09 12:06:53;;;;;;;9.73;4.75;;;;;;;;;;4976966;28;20058;-80
2022/10/09 12:09:25;;;;;;;7.57;4.10;;;;;;;;;;4973466;28;20028;-79
2022/10/09 12:12:02;;;;;;;6.95;2.78;;;;;;;;;;4974367;28;20101;-79
2022/10/09 12:14:29;;;;;;;5.10;2.85;;;;;;;;;;4959133;28;20084;-81
2022/10/09 12:16:55;;;;;;;4.85;2.33;;;;;;;;;;4962600;28;20038;-82
2022/10/09 12:19:24;;;;;;;4.47;2.40;;;;;;;;;;4962891;28;20026;-80
2022/10/09 12:21:55;;;;;;;3.60;2.20;;;;;;;;;;4961929;28;20030;-82
2022/10/09 12:24:22;;;;;;;4.00;2.13;;;;;;;;;;4993743;28;20446;-80
2022/10/09 12:26:48;;;;;;;3.50;2.30;;;;;;;;;;4994907;28;20026;-80
2022/10/09 12:29:19;;;;;;;3.53;1.90;;;;;;;;;;4963330;28;20030;-81
2022/10/09 12:31:44;;;;;;;5.97;1.98;;;;;;;;;;4946904;28;20058;-82
2022/10/09 12:34:17;;;;;;;4.22;2.30;;;;;;;;;;4962630;28;20066;-80
2022/10/09 12:36:43;;;;;;;4.97;2.58;;;;;;;;;;4961552;28;20433;-80
2022/10/09 12:39:18;;;;;;;5.22;2.78;;;;;;;;;;4963281;28;20035;-79
2022/10/09 12:41:44;;;;;;;6.13;2.40;;;;;;;;;;4978673;28;20042;-79
2022/10/09 12:44:14;;;;;;;4.68;2.30;;;;;;;;;;4963360;28;20030;-80
2022/10/09 12:46:40;;;;;;;5.43;2.63;;;;;;;;;;4973326;28;20034;-81
2022/10/09 12:49:20;;;;;;;3.35;2.00;;;;;;;;;;4964128;28;20026;-81
2022/10/09 12:51:53;;;;;;;3.88;2.25;;;;;;;;;;4974327;28;20092;-80
2022/10/09 12:54:19;;;;;;;4.28;2.40;;;;;;;;;;4978759;28;20114;-79
2022/10/09 12:56:44;;;;;;;7.15;3.30;;;;;;;;;;4978741;28;20095;-80
2022/10/09 12:59:10;;;;;;;7.38;3.80;;;;;;;;;;4980631;28;20027;-83
2022/10/09 13:01:35;;;;;;;6.15;2.67;;;;;;;;;;4970494;28;21148;-79
2022/10/09 13:04:09;;;;;;;8.52;3.22;;;;;;;;;;4968656;28;20029;-81
2022/10/09 13:06:36;;;;;;;5.30;2.97;;;;;;;;;;4961954;28;20529;-78
2022/10/09 13:09:03;;;;;;;5.10;3.33;;;;;;;;;;4962140;28;20038;-80
2022/10/09 13:11:29;;;;;;;5.93;3.00;;;;;;;;;;4973565;28;20026;-79
2022/10/09 13:13:54;;;;;;;8.70;3.00;;;;;;;;;;4978458;28;20073;-83
2022/10/09 13:16:20;;;;;;;6.88;3.50;;;;;;;;;;4960785;28;20034;-80
2022/10/09 13:18:58;;;;;;;5.90;3.47;;;;;;;;;;4961971;28;20086;-79
2022/10/09 13:21:26;;;;;;;5.50;3.40;;;;;;;;;;4967819;28;20065;-79
2022/10/09 13:23:51;;;;;;;10.50;4.40;;;;;;;;;;4994685;28;20015;-81
2022/10/09 13:26:26;;;;;;;8.20;4.00;;;;;;;;;;4973230;28;20033;-80
2022/10/09 13:28:52;;;;;;;8.23;3.90;;;;;;;;;;4993415;28;20027;-80
2022/10/09 13:31:18;;;;;;;5.65;3.58;;;;;;;;;;4969739;28;20368;-80
2022/10/09 13:33:43;;;;;;;5.60;3.53;;;;;;;;;;4975827;28;20129;-80
2022/10/09 13:36:11;;;;;;;6.80;3.10;;;;;;;;;;4961748;28;20050;-79
2022/10/09 13:38:36;;;;;;;6.28;3.30;;;;;;;;;;4995116;28;20541;-80
2022/10/09 13:41:02;;;;;;;6.25;2.90;;;;;;;;;;4966683;28;20053;-80
2022/10/09 13:43:29;;;;;;;6.03;3.10;;;;;;;;;;4977390;28;20491;-78
2022/10/09 13:45:55;;;;;;;5.95;2.72;;;;;;;;;;4975454;28;20031;-79
2022/10/09 13:48:21;;;;;;;7.68;3.08;;;;;;;;;;4994145;28;20042;-80
2022/10/09 13:50:46;;;;;;;9.05;3.25;;;;;;;;;;5005744;28;20045;-80
2022/10/09 13:53:12;;;;;;;9.00;3.63;;;;;;;;;;4972622;28;20046;-78
2022/10/09 13:55:38;;;;;;;9.18;3.40;;;;;;;;;;4968200;28;20482;-84
2022/10/09 13:58:04;;;;;;;8.40;3.78;;;;;;;;;;4958487;28;20455;-81
2022/10/09 14:00:29;;;;;;;10.93;3.60;;;;;;;;;;4991058;28;20050;-81
2022/10/09 14:02:55;;;;;;;7.95;3.20;;;;;;;;;;4974543;28;20042;-78
2022/10/09 14:05:21;;;;;;;10.00;3.40;;;;;;;;;;4987403;28;20523;-79
2022/10/09 14:07:46;;;;;;;11.02;3.45;;;;;;;;;;4973796;28;20038;-80
2022/10/09 14:10:12;;;;;;;7.95;3.70;;;;;;;;;;4983207;28;20031;-79
2022/10/09 14:12:37;;;;;;;11.05;4.10;;;;;;;;;;4978282;28;20093;-80
2022/10/09 14:15:03;;;;;;;13.07;3.80;;;;;;;;;;4981926;28;20502;-79
2022/10/09 14:17:29;;;;;;;7.38;3.20;;;;;;;;;;4963136;28;20034;-79
2022/10/09 14:19:54;;;;;;;10.52;3.50;;;;;;;;;;4971951;28;20023;-81
2022/10/09 14:22:20;;;;;;;8.95;3.65;;;;;;;;;;4983797;28;20118;-79
2022/10/09 14:24:45;;;;;;;9.88;3.17;;;;;;;;;;4956485;28;20030;-82
2022/10/09 14:27:11;;;;;;;9.10;3.28;;;;;;;;;;4984923;28;20029;-80
2022/10/09 14:29:37;;;;;;;10.32;3.90;;;;;;;;;;4969989;28;20018;-78
2022/10/09 14:32:03;;;;;;;10.07;3.97;;;;;;;;;;4982179;28;20030;-80
2022/10/09 14:34:28;;;;;;;12.73;3.60;;;;;;;;;;4987661;28;20200;-78
2022/10/09 14:36:54;;;;;;;9.88;2.85;;;;;;;;;;4962584;28;20034;-80
2022/10/09 14:39:19;;;;;;;7.20;3.10;;;;;;;;;;4942490;28;20038;-79
2022/10/09 14:41:45;;;;;;;12.27;4.05;;;;;;;;;;4966511;28;20027;-80
2022/10/09 14:44:10;;;;;;;8.38;3.55;;;;;;;;;;4944642;28;20577;-81
2022/10/09 14:46:38;;;;;;;8.50;3.95;;;;;;;;;;4961070;28;20034;-80
2022/10/09 14:49:06;;;;;;;7.53;3.38;;;;;;;;;;4987731;28;20034;-80
2022/10/09 14:51:31;;;;;;;8.35;3.65;;;;;;;;;;4973038;28;20053;-78
2022/10/09 14:53:57;;;;;;;12.52;3.15;;;;;;;;;;4955915;28;20398;-79
2022/10/09 14:56:22;;;;;;;7.13;2.70;;;;;;;;;;4956860;28;20061;-78
2022/10/09 14:58:48;;;;;;;8.50;3.72;;;;;;;;;;4971494;28;20030;-81